首页
METAR-TAF:

METAR-TAF

机场 :

Gamèti, 西北特區, 加拿大

纬度: 64-06-58N, 经度: 117-18-35W, 海拔: 221米

当前天气观测

该预报发布于15小时和5分钟前的00:00 UTC
风速5节,风向东转东南
温度 4°C
湿度 41%
气压 1027 hPa
能見度: 24.1公里
少量云层高于21000英尺

METAR: CYRA 150000Z 11005KT 15SM FEW210 04/M08 A3034 RMK CI1 CI TR LAST STFD OBS/NEXT 151400 Z SLP294

时间: 09:05 (15:05 UTC)

预报

该预报发布于20小时和27分钟前的18:38 UTC
预报有效从14日的 19点(UTC)到 14日的 24点(UTC)
风速3节,风向多变
能見度: 10公里
天空无云

TAF: CYRA 141838Z 1419/1424 VRB03KT P6SM SKC RMK NXT FCST WILL BE ISSUED AT 151545Z

超过4000个机场的气象观测和天气预报(METAR&TAF报告)。

可查询的气象台以黄色和红色小点在地图上表示。

将鼠标移到小点上方,可查看气象台名称。

然后点击查看天气观测和预报。

如需切换地图:点击带黑十字的绿色按钮放大地图;点击带横线的绿色按钮缩小地图;或者点击绿色箭头查看邻近地区的地图。


METAR-TAF: